sensor_id;sensor_type;location;lat;lon;timestamp;pressure;altitude;pressure_sealevel;temperature;humidity
3654;BME280;70277;54.302;10.064;2023-11-21T00:01:03;100901.69;;;9.62;76.04
3654;BME280;70277;54.302;10.064;2023-11-21T00:03:31;100900.00;;;9.61;75.53
3654;BME280;70277;54.302;10.064;2023-11-21T00:05:57;100902.16;;;9.59;75.92
3654;BME280;70277;54.302;10.064;2023-11-21T00:08:24;100902.50;;;9.63;75.93
3654;BME280;70277;54.302;10.064;2023-11-21T00:10:50;100903.00;;;9.48;76.56
3654;BME280;70277;54.302;10.064;2023-11-21T00:13:17;100903.59;;;9.50;75.95
3654;BME280;70277;54.302;10.064;2023-11-21T00:15:44;100897.59;;;9.36;76.83
3654;BME280;70277;54.302;10.064;2023-11-21T00:18:10;100906.38;;;9.55;75.62
3654;BME280;70277;54.302;10.064;2023-11-21T00:20:37;100907.94;;;9.39;75.41
3654;BME280;70277;54.302;10.064;2023-11-21T00:23:03;100910.34;;;9.64;74.87
3654;BME280;70277;54.302;10.064;2023-11-21T00:25:30;100914.56;;;9.72;74.76
3654;BME280;70277;54.302;10.064;2023-11-21T00:27:58;100914.69;;;9.77;74.40
3654;BME280;70277;54.302;10.064;2023-11-21T00:30:24;100916.81;;;9.63;74.72
3654;BME280;70277;54.302;10.064;2023-11-21T00:32:51;100920.84;;;9.37;75.73
3654;BME280;70277;54.302;10.064;2023-11-21T00:35:17;100925.31;;;9.43;75.58
3654;BME280;70277;54.302;10.064;2023-11-21T00:37:44;100929.09;;;9.30;75.72
3654;BME280;70277;54.302;10.064;2023-11-21T00:40:12;100922.13;;;9.34;75.66
3654;BME280;70277;54.302;10.064;2023-11-21T00:42:38;100930.97;;;9.30;75.99
3654;BME280;70277;54.302;10.064;2023-11-21T00:45:06;100930.84;;;9.37;75.82
3654;BME280;70277;54.302;10.064;2023-11-21T00:47:33;100926.16;;;9.20;76.54
3654;BME280;70277;54.302;10.064;2023-11-21T00:50:00;100928.16;;;9.25;76.98
3654;BME280;70277;54.302;10.064;2023-11-21T00:52:26;100932.72;;;9.24;76.80
3654;BME280;70277;54.302;10.064;2023-11-21T00:54:53;100925.91;;;9.33;76.88
3654;BME280;70277;54.302;10.064;2023-11-21T00:57:20;100933.88;;;9.28;76.56
3654;BME280;70277;54.302;10.064;2023-11-21T00:59:46;100941.41;;;9.50;76.52
3654;BME280;70277;54.302;10.064;2023-11-21T01:02:12;100945.88;;;9.56;75.89
3654;BME280;70277;54.302;10.064;2023-11-21T01:04:39;100948.91;;;9.48;76.05
3654;BME280;70277;54.302;10.064;2023-11-21T01:07:06;100950.81;;;9.36;76.80
3654;BME280;70277;54.302;10.064;2023-11-21T01:09:32;100965.47;;;9.51;75.73
3654;BME280;70277;54.302;10.064;2023-11-21T01:11:59;100961.84;;;9.46;76.13
3654;BME280;70277;54.302;10.064;2023-11-21T01:14:27;100969.94;;;9.57;76.01
3654;BME280;70277;54.302;10.064;2023-11-21T01:16:53;100975.72;;;9.38;77.11
3654;BME280;70277;54.302;10.064;2023-11-21T01:19:20;100980.19;;;9.32;77.15
3654;BME280;70277;54.302;10.064;2023-11-21T01:21:47;100986.06;;;9.41;77.37
3654;BME280;70277;54.302;10.064;2023-11-21T01:24:13;100995.78;;;9.53;76.55
3654;BME280;70277;54.302;10.064;2023-11-21T01:26:40;100999.53;;;9.17;77.10
3654;BME280;70277;54.302;10.064;2023-11-21T01:29:06;101003.63;;;9.43;77.06
3654;BME280;70277;54.302;10.064;2023-11-21T01:31:33;101002.47;;;9.51;77.28
3654;BME280;70277;54.302;10.064;2023-11-21T01:34:00;101005.63;;;9.71;76.22
3654;BME280;70277;54.302;10.064;2023-11-21T01:36:30;100995.28;;;9.80;76.33
3654;BME280;70277;54.302;10.064;2023-11-21T01:38:59;101012.34;;;9.33;78.32
3654;BME280;70277;54.302;10.064;2023-11-21T01:41:26;101010.91;;;9.19;78.66
3654;BME280;70277;54.302;10.064;2023-11-21T01:43:57;100998.59;;;9.23;78.88
3654;BME280;70277;54.302;10.064;2023-11-21T01:46:23;101002.72;;;9.14;78.94
3654;BME280;70277;54.302;10.064;2023-11-21T01:48:51;101008.56;;;9.11;79.80
3654;BME280;70277;54.302;10.064;2023-11-21T01:51:17;101017.50;;;9.23;79.58
3654;BME280;70277;54.302;10.064;2023-11-21T01:53:45;101012.78;;;9.19;79.59
3654;BME280;70277;54.302;10.064;2023-11-21T01:56:13;101018.91;;;9.14;79.81
3654;BME280;70277;54.302;10.064;2023-11-21T01:58:40;101026.75;;;9.04;81.01
3654;BME280;70277;54.302;10.064;2023-11-21T02:01:07;101026.53;;;9.05;80.93
3654;BME280;70277;54.302;10.064;2023-11-21T02:03:35;101027.00;;;9.14;80.18
3654;BME280;70277;54.302;10.064;2023-11-21T02:06:01;101029.75;;;8.96;80.82
3654;BME280;70277;54.302;10.064;2023-11-21T02:08:28;101039.16;;;8.93;81.41
3654;BME280;70277;54.302;10.064;2023-11-21T02:10:54;101040.00;;;8.94;81.38
3654;BME280;70277;54.302;10.064;2023-11-21T02:13:21;101041.69;;;9.18;80.48
3654;BME280;70277;54.302;10.064;2023-11-21T02:15:47;101050.38;;;8.78;81.65
3654;BME280;70277;54.302;10.064;2023-11-21T02:18:16;101051.00;;;8.92;81.49
3654;BME280;70277;54.302;10.064;2023-11-21T02:20:42;101047.25;;;8.63;81.99
3654;BME280;70277;54.302;10.064;2023-11-21T02:23:09;101052.09;;;8.61;82.23
3654;BME280;70277;54.302;10.064;2023-11-21T02:25:35;101057.75;;;8.71;81.92
3654;BME280;70277;54.302;10.064;2023-11-21T02:28:03;101061.97;;;8.67;82.14
3654;BME280;70277;54.302;10.064;2023-11-21T02:30:31;101065.78;;;8.89;81.58
3654;BME280;70277;54.302;10.064;2023-11-21T02:32:59;101071.00;;;9.03;81.13
3654;BME280;70277;54.302;10.064;2023-11-21T02:35:25;101062.94;;;9.15;80.71
3654;BME280;70277;54.302;10.064;2023-11-21T02:37:53;101068.47;;;8.89;81.20
3654;BME280;70277;54.302;10.064;2023-11-21T02:40:20;101067.81;;;8.94;81.40
3654;BME280;70277;54.302;10.064;2023-11-21T02:42:51;101072.00;;;8.90;82.02
3654;BME280;70277;54.302;10.064;2023-11-21T02:45:21;101067.97;;;8.81;82.18
3654;BME280;70277;54.302;10.064;2023-11-21T02:47:48;101073.81;;;9.08;81.67
3654;BME280;70277;54.302;10.064;2023-11-21T02:50:16;101075.31;;;8.92;80.97
3654;BME280;70277;54.302;10.064;2023-11-21T02:52:42;101085.41;;;8.97;80.90
3654;BME280;70277;54.302;10.064;2023-11-21T02:55:09;101077.06;;;8.98;80.80
3654;BME280;70277;54.302;10.064;2023-11-21T02:57:35;101080.50;;;8.75;80.67
3654;BME280;70277;54.302;10.064;2023-11-21T03:00:11;101082.91;;;8.83;80.86
3654;BME280;70277;54.302;10.064;2023-11-21T03:02:39;101085.00;;;8.81;81.22
3654;BME280;70277;54.302;10.064;2023-11-21T03:05:07;101094.16;;;8.80;80.65
3654;BME280;70277;54.302;10.064;2023-11-21T03:07:39;101100.09;;;9.01;81.17
3654;BME280;70277;54.302;10.064;2023-11-21T03:10:08;101095.97;;;8.68;81.58
3654;BME280;70277;54.302;10.064;2023-11-21T03:12:38;101114.09;;;8.79;82.39
3654;BME280;70277;54.302;10.064;2023-11-21T03:15:08;101110.75;;;8.96;81.67
3654;BME280;70277;54.302;10.064;2023-11-21T03:17:35;101108.09;;;9.07;81.54
3654;BME280;70277;54.302;10.064;2023-11-21T03:20:03;101112.13;;;8.86;81.36
3654;BME280;70277;54.302;10.064;2023-11-21T03:22:30;101120.06;;;9.00;81.07
3654;BME280;70277;54.302;10.064;2023-11-21T03:24:57;101124.50;;;8.94;80.83
3654;BME280;70277;54.302;10.064;2023-11-21T03:27:24;101125.25;;;9.13;80.43
3654;BME280;70277;54.302;10.064;2023-11-21T03:29:51;101126.16;;;8.77;81.06
3654;BME280;70277;54.302;10.064;2023-11-21T03:32:18;101128.34;;;8.68;81.51
3654;BME280;70277;54.302;10.064;2023-11-21T03:34:55;101125.94;;;8.78;80.68
3654;BME280;70277;54.302;10.064;2023-11-21T03:37:23;101131.03;;;8.86;80.59
3654;BME280;70277;54.302;10.064;2023-11-21T03:39:50;101137.84;;;8.89;80.33
3654;BME280;70277;54.302;10.064;2023-11-21T03:42:16;101142.84;;;9.04;80.13
3654;BME280;70277;54.302;10.064;2023-11-21T03:44:43;101148.16;;;8.62;80.79
3654;BME280;70277;54.302;10.064;2023-11-21T03:47:09;101138.75;;;8.83;79.67
3654;BME280;70277;54.302;10.064;2023-11-21T03:49:37;101147.88;;;9.00;79.27
3654;BME280;70277;54.302;10.064;2023-11-21T03:52:04;101140.25;;;9.39;78.67
3654;BME280;70277;54.302;10.064;2023-11-21T03:54:30;101147.84;;;9.30;77.93
3654;BME280;70277;54.302;10.064;2023-11-21T03:56:57;101148.84;;;9.48;77.56
3654;BME280;70277;54.302;10.064;2023-11-21T03:59:23;101149.75;;;9.42;77.62
3654;BME280;70277;54.302;10.064;2023-11-21T04:01:50;101160.56;;;9.42;77.59
3654;BME280;70277;54.302;10.064;2023-11-21T04:04:17;101157.84;;;9.30;77.85
3654;BME280;70277;54.302;10.064;2023-11-21T04:06:44;101161.69;;;9.22;78.15
3654;BME280;70277;54.302;10.064;2023-11-21T04:09:10;101163.97;;;9.07;78.75
3654;BME280;70277;54.302;10.064;2023-11-21T04:11:37;101164.16;;;8.94;78.42
3654;BME280;70277;54.302;10.064;2023-11-21T04:14:03;101178.97;;;9.33;77.68
3654;BME280;70277;54.302;10.064;2023-11-21T04:16:30;101178.28;;;9.26;78.12
3654;BME280;70277;54.302;10.064;2023-11-21T04:18:56;101179.41;;;9.60;77.04
3654;BME280;70277;54.302;10.064;2023-11-21T04:21:23;101191.59;;;9.51;76.96
3654;BME280;70277;54.302;10.064;2023-11-21T04:23:50;101181.50;;;9.16;77.17
3654;BME280;70277;54.302;10.064;2023-11-21T04:26:16;101179.41;;;8.70;77.86
3654;BME280;70277;54.302;10.064;2023-11-21T04:28:43;101181.56;;;8.79;78.19
3654;BME280;70277;54.302;10.064;2023-11-21T04:31:09;101193.84;;;8.75;78.19
3654;BME280;70277;54.302;10.064;2023-11-21T04:33:36;101191.47;;;8.85;77.88
3654;BME280;70277;54.302;10.064;2023-11-21T04:36:03;101192.25;;;9.04;77.50
3654;BME280;70277;54.302;10.064;2023-11-21T04:38:29;101188.84;;;8.79;77.38
3654;BME280;70277;54.302;10.064;2023-11-21T04:40:56;101188.75;;;8.85;77.00
3654;BME280;70277;54.302;10.064;2023-11-21T04:43:22;101194.13;;;9.04;76.60
3654;BME280;70277;54.302;10.064;2023-11-21T04:45:49;101197.13;;;8.96;76.23
3654;BME280;70277;54.302;10.064;2023-11-21T04:48:16;101205.63;;;8.62;76.68
3654;BME280;70277;54.302;10.064;2023-11-21T04:50:43;101208.84;;;8.53;77.75
3654;BME280;70277;54.302;10.064;2023-11-21T04:53:09;101206.75;;;8.73;76.55
3654;BME280;70277;54.302;10.064;2023-11-21T04:55:36;101214.13;;;8.84;76.32
3654;BME280;70277;54.302;10.064;2023-11-21T04:58:02;101211.00;;;8.81;76.21
3654;BME280;70277;54.302;10.064;2023-11-21T05:00:30;101203.63;;;8.58;76.91
3654;BME280;70277;54.302;10.064;2023-11-21T05:02:57;101216.03;;;8.77;76.67
3654;BME280;70277;54.302;10.064;2023-11-21T05:05:23;101223.97;;;8.54;77.10
3654;BME280;70277;54.302;10.064;2023-11-21T05:07:50;101233.06;;;8.59;77.25
3654;BME280;70277;54.302;10.064;2023-11-21T05:10:17;101233.50;;;8.93;76.49
3654;BME280;70277;54.302;10.064;2023-11-21T05:12:43;101237.44;;;8.79;76.31
3654;BME280;70277;54.302;10.064;2023-11-21T05:15:14;101238.38;;;8.66;76.99
3654;BME280;70277;54.302;10.064;2023-11-21T05:17:41;101255.00;;;8.63;77.46
3654;BME280;70277;54.302;10.064;2023-11-21T05:20:11;101251.50;;;8.37;77.51
3654;BME280;70277;54.302;10.064;2023-11-21T05:22:40;101262.41;;;8.24;78.27
3654;BME280;70277;54.302;10.064;2023-11-21T05:25:07;101267.13;;;8.54;77.76
3654;BME280;70277;54.302;10.064;2023-11-21T05:27:35;101270.34;;;8.44;77.76
3654;BME280;70277;54.302;10.064;2023-11-21T05:30:02;101271.88;;;8.33;78.32
3654;BME280;70277;54.302;10.064;2023-11-21T05:32:34;101275.63;;;8.32;78.29
3654;BME280;70277;54.302;10.064;2023-11-21T05:35:01;101280.09;;;8.45;78.00
3654;BME280;70277;54.302;10.064;2023-11-21T05:37:28;101286.56;;;8.62;77.37
3654;BME280;70277;54.302;10.064;2023-11-21T05:39:55;101298.63;;;8.60;77.50
3654;BME280;70277;54.302;10.064;2023-11-21T05:42:24;101291.97;;;8.62;77.13
3654;BME280;70277;54.302;10.064;2023-11-21T05:44:51;101293.81;;;8.43;76.99
3654;BME280;70277;54.302;10.064;2023-11-21T05:47:18;101300.75;;;8.58;76.90
3654;BME280;70277;54.302;10.064;2023-11-21T05:49:45;101293.13;;;8.23;77.73
3654;BME280;70277;54.302;10.064;2023-11-21T05:52:16;101300.41;;;8.16;78.32
3654;BME280;70277;54.302;10.064;2023-11-21T05:54:43;101300.25;;;8.36;77.58
3654;BME280;70277;54.302;10.064;2023-11-21T05:57:10;101307.59;;;8.29;77.52
3654;BME280;70277;54.302;10.064;2023-11-21T05:59:36;101313.44;;;8.26;78.13
3654;BME280;70277;54.302;10.064;2023-11-21T06:02:03;101307.94;;;8.39;77.35
3654;BME280;70277;54.302;10.064;2023-11-21T06:04:29;101327.00;;;8.44;77.37
3654;BME280;70277;54.302;10.064;2023-11-21T06:06:56;101328.03;;;8.68;76.50
3654;BME280;70277;54.302;10.064;2023-11-21T06:09:23;101331.44;;;8.57;76.77
3654;BME280;70277;54.302;10.064;2023-11-21T06:11:50;101336.91;;;8.50;76.44
3654;BME280;70277;54.302;10.064;2023-11-21T06:14:17;101336.97;;;8.43;77.03
3654;BME280;70277;54.302;10.064;2023-11-21T06:16:44;101340.00;;;8.72;76.59
3654;BME280;70277;54.302;10.064;2023-11-21T06:19:11;101351.56;;;8.61;76.02
3654;BME280;70277;54.302;10.064;2023-11-21T06:21:38;101352.06;;;8.19;77.13
3654;BME280;70277;54.302;10.064;2023-11-21T06:24:05;101357.56;;;8.31;76.83
3654;BME280;70277;54.302;10.064;2023-11-21T06:26:32;101365.69;;;8.25;77.07
3654;BME280;70277;54.302;10.064;2023-11-21T06:28:58;101367.66;;;8.42;76.64
3654;BME280;70277;54.302;10.064;2023-11-21T06:31:25;101364.31;;;8.72;76.16
3654;BME280;70277;54.302;10.064;2023-11-21T06:33:51;101372.47;;;8.34;77.13
3654;BME280;70277;54.302;10.064;2023-11-21T06:36:19;101375.28;;;8.20;77.57
3654;BME280;70277;54.302;10.064;2023-11-21T06:38:45;101389.88;;;8.38;76.83
3654;BME280;70277;54.302;10.064;2023-11-21T06:41:12;101394.53;;;8.24;77.57
3654;BME280;70277;54.302;10.064;2023-11-21T06:43:42;101403.41;;;8.00;77.88
3654;BME280;70277;54.302;10.064;2023-11-21T06:46:13;101415.16;;;8.12;77.99
3654;BME280;70277;54.302;10.064;2023-11-21T06:48:43;101412.38;;;7.87;77.60
3654;BME280;70277;54.302;10.064;2023-11-21T06:51:10;101417.97;;;8.24;77.49
3654;BME280;70277;54.302;10.064;2023-11-21T06:53:37;101424.13;;;7.99;77.77
3654;BME280;70277;54.302;10.064;2023-11-21T06:56:05;101434.69;;;8.01;77.93
3654;BME280;70277;54.302;10.064;2023-11-21T06:58:41;101443.81;;;8.00;78.28
3654;BME280;70277;54.302;10.064;2023-11-21T07:01:07;101445.47;;;8.01;78.00
3654;BME280;70277;54.302;10.064;2023-11-21T07:03:34;101441.56;;;7.96;77.51
3654;BME280;70277;54.302;10.064;2023-11-21T07:06:01;101455.78;;;8.17;77.48
3654;BME280;70277;54.302;10.064;2023-11-21T07:08:27;101449.50;;;8.23;76.91
3654;BME280;70277;54.302;10.064;2023-11-21T07:10:54;101459.25;;;8.24;76.81
3654;BME280;70277;54.302;10.064;2023-11-21T07:13:20;101463.13;;;8.41;76.66
3654;BME280;70277;54.302;10.064;2023-11-21T07:15:49;101458.56;;;8.35;76.61
3654;BME280;70277;54.302;10.064;2023-11-21T07:18:15;101469.41;;;8.22;76.49
3654;BME280;70277;54.302;10.064;2023-11-21T07:20:42;101460.31;;;8.23;76.76
3654;BME280;70277;54.302;10.064;2023-11-21T07:23:08;101457.84;;;8.15;77.14
3654;BME280;70277;54.302;10.064;2023-11-21T07:25:35;101465.22;;;8.33;77.20
3654;BME280;70277;54.302;10.064;2023-11-21T07:28:01;101470.97;;;8.50;76.84
3654;BME280;70277;54.302;10.064;2023-11-21T07:30:28;101466.09;;;8.27;76.60
3654;BME280;70277;54.302;10.064;2023-11-21T07:32:54;101475.28;;;8.12;77.64
3654;BME280;70277;54.302;10.064;2023-11-21T07:35:21;101473.97;;;8.28;76.98
3654;BME280;70277;54.302;10.064;2023-11-21T07:37:48;101478.88;;;8.38;76.78
3654;BME280;70277;54.302;10.064;2023-11-21T07:40:15;101483.28;;;8.32;76.58
3654;BME280;70277;54.302;10.064;2023-11-21T07:42:41;101490.22;;;8.53;76.63
3654;BME280;70277;54.302;10.064;2023-11-21T07:45:09;101493.00;;;8.33;76.73
3654;BME280;70277;54.302;10.064;2023-11-21T07:47:35;101488.97;;;8.11;77.06
3654;BME280;70277;54.302;10.064;2023-11-21T07:50:03;101494.22;;;8.44;76.82
3654;BME280;70277;54.302;10.064;2023-11-21T07:52:30;101488.66;;;8.32;76.50
3654;BME280;70277;54.302;10.064;2023-11-21T07:54:56;101493.94;;;8.14;77.05
3654;BME280;70277;54.302;10.064;2023-11-21T07:57:23;101496.22;;;8.17;76.96
3654;BME280;70277;54.302;10.064;2023-11-21T07:59:49;101502.09;;;8.46;75.99
3654;BME280;70277;54.302;10.064;2023-11-21T08:02:16;101500.25;;;8.39;76.35
3654;BME280;70277;54.302;10.064;2023-11-21T08:04:44;101507.50;;;8.77;75.56
3654;BME280;70277;54.302;10.064;2023-11-21T08:07:11;101501.47;;;8.37;75.61
3654;BME280;70277;54.302;10.064;2023-11-21T08:09:37;101516.44;;;8.39;75.41
3654;BME280;70277;54.302;10.064;2023-11-21T08:12:04;101519.75;;;8.41;76.24
3654;BME280;70277;54.302;10.064;2023-11-21T08:14:31;101526.75;;;8.56;76.06
3654;BME280;70277;54.302;10.064;2023-11-21T08:16:57;101528.19;;;8.58;74.96
3654;BME280;70277;54.302;10.064;2023-11-21T08:19:24;101536.31;;;8.83;74.29
3654;BME280;70277;54.302;10.064;2023-11-21T08:21:53;101548.28;;;8.11;76.25
3654;BME280;70277;54.302;10.064;2023-11-21T08:24:21;101551.94;;;8.30;76.01
3654;BME280;70277;54.302;10.064;2023-11-21T08:26:48;101553.28;;;8.59;75.91
3654;BME280;70277;54.302;10.064;2023-11-21T08:29:14;101553.53;;;8.51;75.76
3654;BME280;70277;54.302;10.064;2023-11-21T08:31:41;101563.06;;;8.02;76.88
3654;BME280;70277;54.302;10.064;2023-11-21T08:34:07;101560.31;;;8.15;76.78
3654;BME280;70277;54.302;10.064;2023-11-21T08:36:35;101562.22;;;7.94;77.14
3654;BME280;70277;54.302;10.064;2023-11-21T08:39:01;101559.94;;;8.56;75.59
3654;BME280;70277;54.302;10.064;2023-11-21T08:41:28;101571.94;;;8.67;75.28
3654;BME280;70277;54.302;10.064;2023-11-21T08:43:54;101570.28;;;8.98;75.00
3654;BME280;70277;54.302;10.064;2023-11-21T08:46:21;101571.84;;;9.12;73.76
3654;BME280;70277;54.302;10.064;2023-11-21T08:48:49;101580.81;;;8.74;75.45
3654;BME280;70277;54.302;10.064;2023-11-21T08:51:18;101584.66;;;8.92;75.20
3654;BME280;70277;54.302;10.064;2023-11-21T08:53:45;101582.53;;;8.62;75.13
3654;BME280;70277;54.302;10.064;2023-11-21T08:56:15;101590.25;;;8.52;76.17
3654;BME280;70277;54.302;10.064;2023-11-21T08:58:41;101596.31;;;8.34;76.28
3654;BME280;70277;54.302;10.064;2023-11-21T09:01:08;101583.81;;;7.88;78.10
3654;BME280;70277;54.302;10.064;2023-11-21T09:03:34;101595.38;;;8.08;77.67
3654;BME280;70277;54.302;10.064;2023-11-21T09:06:01;101599.94;;;8.08;78.10
3654;BME280;70277;54.302;10.064;2023-11-21T09:08:27;101604.94;;;7.97;78.25
3654;BME280;70277;54.302;10.064;2023-11-21T09:10:55;101602.88;;;8.00;78.31
3654;BME280;70277;54.302;10.064;2023-11-21T09:13:22;101610.13;;;7.92;78.39
3654;BME280;70277;54.302;10.064;2023-11-21T09:15:51;101616.34;;;8.00;78.02
3654;BME280;70277;54.302;10.064;2023-11-21T09:18:18;101618.44;;;7.84;77.97
3654;BME280;70277;54.302;10.064;2023-11-21T09:20:44;101609.28;;;7.92;77.67
3654;BME280;70277;54.302;10.064;2023-11-21T09:23:11;101618.84;;;7.74;77.99
3654;BME280;70277;54.302;10.064;2023-11-21T09:25:38;101626.09;;;7.87;78.39
3654;BME280;70277;54.302;10.064;2023-11-21T09:28:05;101633.38;;;7.73;78.82
3654;BME280;70277;54.302;10.064;2023-11-21T09:30:34;101639.69;;;8.32;77.12
3654;BME280;70277;54.302;10.064;2023-11-21T09:33:03;101646.13;;;8.38;76.13
3654;BME280;70277;54.302;10.064;2023-11-21T09:35:35;101652.91;;;8.67;75.38
3654;BME280;70277;54.302;10.064;2023-11-21T09:38:01;101652.03;;;8.73;74.43
3654;BME280;70277;54.302;10.064;2023-11-21T09:40:31;101648.50;;;8.73;74.95
3654;BME280;70277;54.302;10.064;2023-11-21T09:42:58;101647.38;;;8.94;74.30
3654;BME280;70277;54.302;10.064;2023-11-21T09:45:32;101650.13;;;8.80;74.43
3654;BME280;70277;54.302;10.064;2023-11-21T09:48:00;101665.69;;;8.85;74.04
3654;BME280;70277;54.302;10.064;2023-11-21T09:50:27;101672.72;;;8.86;74.18
3654;BME280;70277;54.302;10.064;2023-11-21T09:53:07;101673.78;;;8.85;73.88
3654;BME280;70277;54.302;10.064;2023-11-21T09:55:37;101671.38;;;8.57;74.14
3654;BME280;70277;54.302;10.064;2023-11-21T09:58:05;101673.47;;;8.61;73.77
3654;BME280;70277;54.302;10.064;2023-11-21T10:00:41;101670.84;;;8.86;73.25
3654;BME280;70277;54.302;10.064;2023-11-21T10:03:08;101668.78;;;8.88;73.32
3654;BME280;70277;54.302;10.064;2023-11-21T10:05:36;101692.50;;;9.18;73.51
3654;BME280;70277;54.302;10.064;2023-11-21T10:08:06;101686.56;;;9.03;73.06
3654;BME280;70277;54.302;10.064;2023-11-21T10:10:35;101691.97;;;9.03;73.20
3654;BME280;70277;54.302;10.064;2023-11-21T10:13:03;101687.66;;;8.88;72.64
3654;BME280;70277;54.302;10.064;2023-11-21T10:15:34;101705.22;;;9.11;72.41
3654;BME280;70277;54.302;10.064;2023-11-21T10:18:05;101703.22;;;9.31;72.65
3654;BME280;70277;54.302;10.064;2023-11-21T10:20:33;101695.06;;;8.55;73.55
3654;BME280;70277;54.302;10.064;2023-11-21T10:23:00;101712.72;;;8.44;73.83
3654;BME280;70277;54.302;10.064;2023-11-21T10:25:31;101708.91;;;8.72;73.73
3654;BME280;70277;54.302;10.064;2023-11-21T10:28:01;101702.94;;;8.36;74.05
3654;BME280;70277;54.302;10.064;2023-11-21T10:30:32;101713.53;;;8.38;74.39
3654;BME280;70277;54.302;10.064;2023-11-21T10:32:59;101722.06;;;8.55;74.05
3654;BME280;70277;54.302;10.064;2023-11-21T10:35:47;101711.81;;;8.77;74.35
3654;BME280;70277;54.302;10.064;2023-11-21T10:38:18;101719.78;;;8.45;74.85
3654;BME280;70277;54.302;10.064;2023-11-21T10:40:46;101709.59;;;8.54;74.28
3654;BME280;70277;54.302;10.064;2023-11-21T10:43:13;101706.44;;;8.70;74.51
3654;BME280;70277;54.302;10.064;2023-11-21T10:45:42;101716.22;;;8.58;74.80
3654;BME280;70277;54.302;10.064;2023-11-21T10:48:10;101716.69;;;8.28;76.10
3654;BME280;70277;54.302;10.064;2023-11-21T10:50:37;101720.63;;;8.26;76.30
3654;BME280;70277;54.302;10.064;2023-11-21T10:53:04;101724.97;;;8.20;76.35
3654;BME280;70277;54.302;10.064;2023-11-21T10:55:32;101726.63;;;8.21;76.49
3654;BME280;70277;54.302;10.064;2023-11-21T10:58:01;101717.09;;;7.98;77.23
3654;BME280;70277;54.302;10.064;2023-11-21T11:00:29;101727.47;;;8.41;77.39
3654;BME280;70277;54.302;10.064;2023-11-21T11:02:56;101726.84;;;8.13;77.61
3654;BME280;70277;54.302;10.064;2023-11-21T11:05:23;101724.16;;;8.06;78.12
3654;BME280;70277;54.302;10.064;2023-11-21T11:07:51;101732.88;;;7.75;77.52
3654;BME280;70277;54.302;10.064;2023-11-21T11:10:26;101740.31;;;7.80;77.40
3654;BME280;70277;54.302;10.064;2023-11-21T11:12:54;101744.84;;;7.52;76.26
3654;BME280;70277;54.302;10.064;2023-11-21T11:15:21;101753.19;;;7.84;77.22
3654;BME280;70277;54.302;10.064;2023-11-21T11:17:49;101753.38;;;7.83;75.76
3654;BME280;70277;54.302;10.064;2023-11-21T11:20:16;101747.34;;;7.67;75.51
3654;BME280;70277;54.302;10.064;2023-11-21T11:34:30;101753.97;;;7.65;74.65
3654;BME280;70277;54.302;10.064;2023-11-21T11:37:04;101753.19;;;7.84;74.48
3654;BME280;70277;54.302;10.064;2023-11-21T11:39:40;101762.31;;;7.96;75.19
3654;BME280;70277;54.302;10.064;2023-11-21T11:42:15;101759.19;;;7.73;74.85
3654;BME280;70277;54.302;10.064;2023-11-21T11:47:14;101775.16;;;8.21;74.51
3654;BME280;70277;54.302;10.064;2023-11-21T11:50:04;101776.00;;;8.28;73.90
3654;BME280;70277;54.302;10.064;2023-11-21T11:55:16;101779.31;;;8.30;73.50
3654;BME280;70277;54.302;10.064;2023-11-21T11:57:51;101787.03;;;8.47;74.50
3654;BME280;70277;54.302;10.064;2023-11-21T12:00:34;101778.09;;;8.46;74.84
3654;BME280;70277;54.302;10.064;2023-11-21T12:03:07;101780.56;;;8.14;74.68
3654;BME280;70277;54.302;10.064;2023-11-21T12:05:35;101783.47;;;8.00;75.38
3654;BME280;70277;54.302;10.064;2023-11-21T12:08:06;101789.03;;;7.78;76.10
3654;BME280;70277;54.302;10.064;2023-11-21T12:10:35;101791.75;;;7.85;76.23
3654;BME280;70277;54.302;10.064;2023-11-21T12:13:06;101796.50;;;7.69;76.23
3654;BME280;70277;54.302;10.064;2023-11-21T12:15:37;101798.16;;;7.77;75.75
3654;BME280;70277;54.302;10.064;2023-11-21T12:18:05;101812.66;;;7.76;75.12
3654;BME280;70277;54.302;10.064;2023-11-21T12:20:33;101816.25;;;8.23;74.31
3654;BME280;70277;54.302;10.064;2023-11-21T12:23:05;101816.63;;;8.00;74.59
3654;BME280;70277;54.302;10.064;2023-11-21T12:25:32;101820.84;;;8.49;73.16
3654;BME280;70277;54.302;10.064;2023-11-21T12:28:00;101820.41;;;8.46;73.18
3654;BME280;70277;54.302;10.064;2023-11-21T12:30:29;101822.69;;;8.35;73.51
3654;BME280;70277;54.302;10.064;2023-11-21T12:32:58;101824.13;;;8.18;73.24
3654;BME280;70277;54.302;10.064;2023-11-21T12:35:26;101826.19;;;8.03;72.90
3654;BME280;70277;54.302;10.064;2023-11-21T12:37:54;101829.28;;;8.13;73.36
3654;BME280;70277;54.302;10.064;2023-11-21T12:40:22;101832.81;;;7.93;73.73
3654;BME280;70277;54.302;10.064;2023-11-21T12:42:54;101844.00;;;8.04;72.84
3654;BME280;70277;54.302;10.064;2023-11-21T12:45:26;101844.88;;;8.11;72.86
3654;BME280;70277;54.302;10.064;2023-11-21T12:47:59;101834.09;;;8.24;72.70
3654;BME280;70277;54.302;10.064;2023-11-21T12:50:28;101844.47;;;8.14;72.06
3654;BME280;70277;54.302;10.064;2023-11-21T12:53:00;101840.25;;;7.91;71.37
3654;BME280;70277;54.302;10.064;2023-11-21T12:55:33;101853.09;;;7.83;71.63
3654;BME280;70277;54.302;10.064;2023-11-21T12:58:03;101845.25;;;7.94;72.07
3654;BME280;70277;54.302;10.064;2023-11-21T13:03:10;101869.31;;;8.09;71.23
3654;BME280;70277;54.302;10.064;2023-11-21T13:05:40;101861.41;;;7.81;71.66
3654;BME280;70277;54.302;10.064;2023-11-21T13:08:14;101861.41;;;7.94;70.64
3654;BME280;70277;54.302;10.064;2023-11-21T13:10:46;101867.84;;;7.87;70.47
3654;BME280;70277;54.302;10.064;2023-11-21T13:13:14;101864.94;;;7.88;70.49
3654;BME280;70277;54.302;10.064;2023-11-21T13:18:16;101880.91;;;7.96;70.36
3654;BME280;70277;54.302;10.064;2023-11-21T13:20:43;101878.00;;;7.98;70.34
3654;BME280;70277;54.302;10.064;2023-11-21T13:23:10;101887.03;;;8.38;70.66
3654;BME280;70277;54.302;10.064;2023-11-21T13:25:41;101880.75;;;8.11;70.20